Albany, New York
Traffic Map
Current Weather Conditions
Albany, New York
Overcast
Overcast
46°
Feels Like: 44°
Wind Chill: 44° Ceiling: 2400
Heat Index: 46° Visibility: 10mi
Dew Point: 42° Wind: 5mph
Humidity: 86% Direction: 10° (N)
Pressure: 29.91in Gusts: 0mph
Raw Report DataKALB 030951Z 01004KT 10SM OVC024 08/06 A2991 RMK AO2 SLP130 T00780056
Traffic Incident Summary
Active as of:
Severity:
Category:
InformationThere was an issue retrieving the traffic information for this location. Please try a different location or try again shortly.
Advertisements
Track Severe Weather on mobile